Time;durP1;ratioP1;P1;durP2;ratioP2;P2;SDS_P1;SDS_P2;PMS_P1;PMS_P2;Temp;Humidity;BMP_temperature;BMP_pressure;BME280_temperature;BME280_humidity;BME280_pressure;Samples;Min_cycle;Max_cycle;Signal;HPM_P1;HPM_P2
2023/04/20 00:01:33;;;;;;;2.95;1.60;;;;;;;16.82;27.30;101861.56;5035462;28;20022;-68
2023/04/20 00:03:58;;;;;;;4.32;1.75;;;;;;;16.76;26.29;101854.88;5036019;28;20072;-68
2023/04/20 00:06:30;;;;;;;4.28;1.65;;;;;;;16.72;27.86;101856.16;5017925;28;20124;-68
2023/04/20 00:08:55;;;;;;;5.50;2.20;;;;;;;16.68;26.28;101846.63;5033950;28;20502;-68
2023/04/20 00:11:20;;;;;;;4.75;1.50;;;;;;;16.66;27.10;101854.06;5033861;28;20078;-68
2023/04/20 00:13:46;;;;;;;2.55;1.40;;;;;;;16.62;26.54;101851.75;5017259;28;20049;-68
2023/04/20 00:16:11;;;;;;;2.65;1.70;;;;;;;16.62;27.61;101852.63;5035248;28;20112;-68
2023/04/20 00:18:37;;;;;;;5.15;2.00;;;;;;;16.60;27.44;101848.34;5033543;28;20500;-68
2023/04/20 00:21:02;;;;;;;5.68;2.03;;;;;;;16.57;27.33;101838.66;5033989;28;20033;-67
2023/04/20 00:23:28;;;;;;;2.13;1.52;;;;;;;16.55;27.48;101835.25;5034122;28;20045;-68
2023/04/20 00:25:54;;;;;;;6.28;1.83;;;;;;;16.52;27.15;101840.91;5035024;28;20092;-68
2023/04/20 00:28:19;;;;;;;3.67;1.75;;;;;;;16.51;26.96;101830.22;5034786;28;20049;-68
2023/04/20 00:30:44;;;;;;;8.68;1.88;;;;;;;16.50;27.41;101831.25;5016876;28;20029;-68
2023/04/20 00:33:10;;;;;;;2.20;1.67;;;;;;;16.48;27.31;101827.81;5033418;28;20042;-68
2023/04/20 00:35:35;;;;;;;3.47;1.50;;;;;;;16.45;27.22;101820.84;5033226;28;20448;-68
2023/04/20 00:38:01;;;;;;;4.20;1.73;;;;;;;16.42;26.90;101818.41;5033045;28;20175;-68
2023/04/20 00:40:26;;;;;;;2.92;1.77;;;;;;;16.39;27.07;101820.56;5017041;28;20037;-68
2023/04/20 00:42:51;;;;;;;4.68;2.33;;;;;;;16.37;26.59;101818.00;5034409;28;20457;-68
2023/04/20 00:45:17;;;;;;;3.45;1.50;;;;;;;16.35;26.75;101817.28;5033062;28;20064;-68
2023/04/20 00:47:42;;;;;;;2.30;1.63;;;;;;;16.33;27.56;101814.72;5033084;28;20026;-68
2023/04/20 00:50:08;;;;;;;3.55;1.77;;;;;;;16.31;26.84;101811.31;5016458;28;20025;-68
2023/04/20 00:52:34;;;;;;;2.78;1.80;;;;;;;16.26;27.55;101810.88;5033137;28;20107;-68
2023/04/20 00:54:59;;;;;;;4.78;2.15;;;;;;;16.25;26.57;101816.41;5016660;28;20056;-68
2023/04/20 00:57:25;;;;;;;2.50;1.42;;;;;;;16.23;27.89;101808.47;5032307;28;20041;-68
2023/04/20 00:59:51;;;;;;;6.20;1.88;;;;;;;16.19;27.46;101801.63;5032803;28;20033;-68
2023/04/20 01:02:17;;;;;;;5.97;1.80;;;;;;;16.19;27.56;101808.91;5016977;28;20034;-68
2023/04/20 01:04:46;;;;;;;4.40;1.45;;;;;;;16.13;27.22;101791.41;5016525;28;20025;-68
2023/04/20 01:07:11;;;;;;;8.25;2.00;;;;;;;16.16;28.21;101795.66;5016188;28;20052;-68
2023/04/20 01:09:38;;;;;;;3.63;2.03;;;;;;;16.13;28.52;101795.94;4999932;28;20042;-68
2023/04/20 01:12:04;;;;;;;5.82;2.25;;;;;;;16.11;26.96;101782.56;5000181;28;20037;-68
2023/04/20 01:14:29;;;;;;;6.63;2.35;;;;;;;16.09;27.64;101783.69;5034053;28;20033;-68
2023/04/20 01:16:55;;;;;;;7.45;1.60;;;;;;;16.07;28.42;101781.16;5032574;28;20456;-68
2023/04/20 01:19:20;;;;;;;1.95;1.80;;;;;;;16.03;27.02;101768.03;5016329;28;20033;-68
2023/04/20 01:21:46;;;;;;;9.15;1.60;;;;;;;16.02;27.99;101769.03;5032403;28;20036;-68
2023/04/20 01:24:12;;;;;;;1.55;1.45;;;;;;;16.02;27.80;101777.16;5033171;28;20029;-68
2023/04/20 01:26:37;;;;;;;1.77;1.30;;;;;;;16.02;26.96;101771.75;5014381;28;20129;-68
2023/04/20 01:29:03;;;;;;;2.67;1.83;;;;;;;16.02;28.40;101766.34;5032274;28;20033;-68
2023/04/20 01:31:29;;;;;;;3.33;1.50;;;;;;;15.98;27.75;101762.19;5016196;28;20061;-68
2023/04/20 01:33:54;;;;;;;4.55;2.28;;;;;;;15.95;26.84;101754.38;4999477;28;20040;-68
2023/04/20 01:36:20;;;;;;;3.25;1.65;;;;;;;15.93;26.99;101750.97;5032355;28;20044;-68
2023/04/20 01:38:46;;;;;;;7.60;1.77;;;;;;;15.92;27.27;101749.25;5032143;28;20033;-68
2023/04/20 01:41:12;;;;;;;5.00;2.13;;;;;;;15.88;27.24;101753.25;4999408;28;20652;-68
2023/04/20 01:43:38;;;;;;;4.18;1.90;;;;;;;15.87;28.52;101751.53;5032599;28;20068;-68
2023/04/20 01:46:04;;;;;;;3.80;1.55;;;;;;;15.85;27.42;101748.13;5015578;28;20041;-68
2023/04/20 01:48:29;;;;;;;4.10;2.53;;;;;;;15.85;27.04;101748.13;5032403;28;20029;-68
2023/04/20 01:50:55;;;;;;;5.00;1.92;;;;;;;15.83;28.21;101733.91;5033397;28;20095;-68
2023/04/20 01:53:20;;;;;;;4.22;2.08;;;;;;;15.86;28.03;101739.00;5031897;28;20504;-67
2023/04/20 01:55:47;;;;;;;5.70;1.88;;;;;;;15.85;27.75;101732.78;5015742;28;20029;-68
2023/04/20 01:58:12;;;;;;;4.15;1.95;;;;;;;15.85;27.17;101726.50;5032167;28;20044;-68
2023/04/20 02:00:37;;;;;;;2.63;1.83;;;;;;;15.86;27.88;101730.91;5015263;28;20033;-68
2023/04/20 02:03:03;;;;;;;2.40;1.70;;;;;;;15.85;27.45;101718.41;5015415;28;20033;-68
2023/04/20 02:05:28;;;;;;;4.32;1.65;;;;;;;15.83;27.70;101713.13;5015174;28;20060;-68
2023/04/20 02:07:54;;;;;;;3.92;1.70;;;;;;;15.83;27.13;101709.59;5032478;28;20408;-67
2023/04/20 02:10:19;;;;;;;3.83;1.98;;;;;;;15.84;28.50;101703.16;5033259;28;20496;-68
2023/04/20 02:12:45;;;;;;;3.60;1.73;;;;;;;15.82;28.03;101707.88;5032004;28;20164;-68
2023/04/20 02:15:10;;;;;;;2.83;1.55;;;;;;;15.82;27.77;101713.28;5031690;28;20034;-68
2023/04/20 02:17:36;;;;;;;4.95;1.70;;;;;;;15.78;28.48;101715.41;5032224;28;20025;-67
2023/04/20 02:20:11;;;;;;;2.53;1.60;;;;;;;15.77;28.74;101712.84;5033580;28;20100;-67
2023/04/20 02:22:37;;;;;;;3.65;1.70;;;;;;;15.71;28.34;101707.03;5032273;28;20013;-68
2023/04/20 02:25:03;;;;;;;2.78;1.55;;;;;;;15.71;27.75;101709.72;5031419;28;20103;-68
2023/04/20 02:27:30;;;;;;;4.07;1.98;;;;;;;15.68;27.88;101699.19;5048237;28;20029;-68
2023/04/20 02:29:56;;;;;;;1.95;1.00;;;;;;;15.68;28.51;101701.91;5031479;28;20515;-68
2023/04/20 02:32:21;;;;;;;3.83;1.50;;;;;;;15.67;27.54;101702.88;5015273;28;20034;-68
2023/04/20 02:34:47;;;;;;;8.18;1.92;;;;;;;15.64;27.78;101703.16;5015460;28;20030;-68
2023/04/20 02:37:12;;;;;;;3.38;1.70;;;;;;;15.66;28.29;101705.75;5034447;28;20400;-68
2023/04/20 02:39:37;;;;;;;5.70;1.85;;;;;;;15.62;27.58;101693.50;5018403;28;20037;-68
2023/04/20 02:42:04;;;;;;;1.92;1.63;;;;;;;15.65;27.17;101701.31;5035203;28;20037;-68
2023/04/20 02:44:29;;;;;;;2.88;1.70;;;;;;;15.64;28.53;101700.47;5035472;28;20029;-68
2023/04/20 02:46:55;;;;;;;5.75;1.48;;;;;;;15.65;28.77;101693.22;5036621;28;20037;-67
2023/04/20 02:49:20;;;;;;;2.03;1.20;;;;;;;15.65;28.37;101687.81;5035731;28;20021;-68
2023/04/20 02:51:45;;;;;;;2.65;1.70;;;;;;;15.63;28.42;101674.44;5018852;28;20025;-67
2023/04/20 02:54:11;;;;;;;4.15;1.85;;;;;;;15.62;28.42;101661.94;5036607;28;20501;-68
2023/04/20 02:56:36;;;;;;;6.97;1.80;;;;;;;15.62;27.52;101661.94;5035106;28;20029;-68
2023/04/20 02:59:02;;;;;;;1.60;1.20;;;;;;;15.61;28.36;101671.03;5035027;28;20033;-67
2023/04/20 03:01:27;;;;;;;4.03;1.63;;;;;;;15.61;28.06;101664.78;5036497;28;20053;-68
2023/04/20 03:03:52;;;;;;;3.65;1.65;;;;;;;15.64;28.42;101664.50;5018492;28;20037;-68
2023/04/20 03:06:18;;;;;;;2.05;1.10;;;;;;;15.63;27.99;101650.13;5034765;28;20056;-68
2023/04/20 03:08:43;;;;;;;5.47;1.35;;;;;;;15.63;28.92;101647.44;5036273;28;20159;-68
2023/04/20 03:11:08;;;;;;;9.30;1.50;;;;;;;15.64;28.95;101648.28;5018601;28;20053;-68
2023/04/20 03:13:35;;;;;;;7.15;1.60;;;;;;;15.64;28.32;101638.34;5035477;28;20049;-68
2023/04/20 03:16:00;;;;;;;4.38;1.70;;;;;;;15.64;28.55;101632.94;5034973;28;20523;-68
2023/04/20 03:18:25;;;;;;;2.33;1.48;;;;;;;15.66;28.85;101619.31;5018403;28;20033;-67
2023/04/20 03:20:51;;;;;;;4.68;2.13;;;;;;;15.65;28.10;101618.44;5036114;28;20033;-68
2023/04/20 03:23:17;;;;;;;2.55;1.38;;;;;;;15.66;29.01;101617.44;5002185;28;20428;-68
2023/04/20 03:25:43;;;;;;;2.38;1.42;;;;;;;15.67;28.42;101627.25;5034888;28;20151;-68
2023/04/20 03:28:09;;;;;;;5.63;1.58;;;;;;;15.67;28.13;101621.84;5034952;28;20101;-68
2023/04/20 03:30:34;;;;;;;5.35;2.03;;;;;;;15.64;27.52;101618.56;5035808;28;20408;-68
2023/04/20 03:33:00;;;;;;;1.23;1.13;;;;;;;15.64;29.04;101608.63;5018126;28;20029;-68
2023/04/20 03:35:26;;;;;;;4.25;1.63;;;;;;;15.62;28.76;101602.53;5034591;28;20080;-67
2023/04/20 03:37:52;;;;;;;1.75;1.30;;;;;;;15.65;28.41;101609.50;5036101;28;20053;-68
2023/04/20 03:40:17;;;;;;;6.70;1.73;;;;;;;15.65;27.62;101609.50;5034327;28;20405;-67
2023/04/20 03:42:42;;;;;;;2.60;1.33;;;;;;;15.62;28.99;101604.38;5034224;28;20041;-68
2023/04/20 03:45:08;;;;;;;6.22;1.52;;;;;;;15.61;28.73;101611.59;5017736;28;20087;-68
2023/04/20 03:47:33;;;;;;;2.95;1.75;;;;;;;15.64;29.36;101613.16;5033824;28;20041;-68
2023/04/20 03:49:59;;;;;;;3.10;1.73;;;;;;;15.63;29.11;101604.22;5035348;28;20025;-67
2023/04/20 03:52:24;;;;;;;1.98;1.48;;;;;;;15.66;28.66;101603.09;5034526;28;20506;-68
2023/04/20 03:54:50;;;;;;;3.58;1.42;;;;;;;15.65;29.16;101601.38;5034213;28;20082;-68
2023/04/20 03:57:15;;;;;;;3.80;1.60;;;;;;;15.63;27.63;101597.97;5017370;28;20029;-68
2023/04/20 03:59:41;;;;;;;3.30;1.40;;;;;;;15.63;27.63;101598.81;5017467;28;20033;-68
2023/04/20 04:02:06;;;;;;;3.95;1.88;;;;;;;15.62;29.05;101594.44;5034234;28;20493;-68
2023/04/20 04:04:32;;;;;;;2.28;1.67;;;;;;;15.63;28.08;101587.19;5034200;28;20041;-68
2023/04/20 04:06:57;;;;;;;6.15;1.17;;;;;;;15.60;29.16;101588.31;5001152;28;20045;-68
2023/04/20 04:09:25;;;;;;;2.03;1.35;;;;;;;15.62;29.17;101593.56;5033964;28;20120;-68
2023/04/20 04:11:50;;;;;;;3.47;1.13;;;;;;;15.61;27.83;101595.41;5018135;28;20413;-68
2023/04/20 04:14:16;;;;;;;2.05;1.40;;;;;;;15.58;29.05;101590.28;5002051;28;20040;-67
2023/04/20 04:16:41;;;;;;;8.40;2.25;;;;;;;15.57;28.76;101591.31;5003307;28;20110;-68
2023/04/20 04:19:07;;;;;;;2.53;1.63;;;;;;;15.55;29.23;101585.16;5034179;28;20501;-68
2023/04/20 04:21:33;;;;;;;2.30;1.42;;;;;;;15.55;28.40;101587.88;5035561;28;20117;-68
2023/04/20 04:23:58;;;;;;;4.43;1.67;;;;;;;15.52;28.32;101590.84;5034639;28;20567;-68
2023/04/20 04:26:23;;;;;;;2.25;1.48;;;;;;;15.49;29.67;101585.78;5019048;28;20038;-67
2023/04/20 04:28:50;;;;;;;5.68;1.73;;;;;;;15.45;29.38;101581.59;5003048;28;20053;-68
2023/04/20 04:31:18;;;;;;;2.72;1.60;;;;;;;15.45;29.59;101578.03;5036035;28;20037;-68
2023/04/20 04:33:45;;;;;;;4.30;1.40;;;;;;;15.44;29.03;101577.19;5035895;28;20029;-67
2023/04/20 04:36:10;;;;;;;2.22;1.40;;;;;;;15.42;28.59;101576.47;5017730;28;20037;-67
2023/04/20 04:38:36;;;;;;;4.68;1.25;;;;;;;15.38;28.70;101579.63;5033714;28;20033;-68
2023/04/20 04:41:02;;;;;;;5.75;1.73;;;;;;;15.36;28.64;101563.53;5017822;28;20041;-68
2023/04/20 04:43:28;;;;;;;7.55;1.70;;;;;;;15.37;29.80;101569.81;5033863;28;20028;-68
2023/04/20 04:45:54;;;;;;;6.07;1.85;;;;;;;15.40;29.95;101578.47;5033473;28;20029;-68
2023/04/20 04:48:19;;;;;;;4.00;1.88;;;;;;;15.42;30.05;101562.97;5016622;28;20047;-68
2023/04/20 04:50:45;;;;;;;14.02;2.00;;;;;;;15.42;28.96;101567.53;5033251;28;20033;-68
2023/04/20 04:53:11;;;;;;;3.28;1.48;;;;;;;15.33;29.44;101555.72;5000318;28;20120;-68
2023/04/20 04:55:36;;;;;;;3.17;1.70;;;;;;;15.38;30.41;101558.84;5033442;28;20452;-68
2023/04/20 04:58:02;;;;;;;4.97;1.67;;;;;;;15.34;30.20;101560.16;5032859;28;20103;-68
2023/04/20 05:00:30;;;;;;;4.15;1.48;;;;;;;15.32;29.97;101556.75;5032831;28;20046;-67
2023/04/20 05:02:55;;;;;;;4.38;1.73;;;;;;;15.32;30.38;101570.25;5017543;28;20052;-67
2023/04/20 05:05:21;;;;;;;4.20;1.58;;;;;;;15.30;30.27;101557.88;5033755;28;20115;-68
2023/04/20 05:07:46;;;;;;;3.67;1.83;;;;;;;15.29;30.84;101565.13;5033531;28;20032;-68
2023/04/20 05:10:12;;;;;;;3.10;1.88;;;;;;;15.30;30.08;101568.69;5016372;28;20025;-67
2023/04/20 05:12:38;;;;;;;7.00;2.15;;;;;;;15.33;31.34;101563.81;5033004;28;20037;-68
2023/04/20 05:15:04;;;;;;;6.38;1.95;;;;;;;15.33;30.55;101574.63;5032573;28;20038;-68
2023/04/20 05:17:30;;;;;;;4.40;1.85;;;;;;;15.34;31.43;101576.34;5016026;28;20412;-68
2023/04/20 05:19:55;;;;;;;3.13;1.50;;;;;;;15.36;29.99;101563.53;5016020;28;20092;-67
2023/04/20 05:22:20;;;;;;;3.47;1.55;;;;;;;15.39;30.59;101563.25;5034029;28;20021;-68
2023/04/20 05:24:46;;;;;;;4.82;1.77;;;;;;;15.44;30.23;101571.78;5033698;28;20030;-67
2023/04/20 05:27:11;;;;;;;4.55;1.70;;;;;;;15.45;30.58;101572.63;5033551;28;20037;-68
2023/04/20 05:29:37;;;;;;;2.05;1.70;;;;;;;15.46;31.10;101575.25;5032351;28;20034;-68
2023/04/20 05:32:03;;;;;;;6.13;2.40;;;;;;;15.46;30.93;101569.84;5032081;28;20033;-66
2023/04/20 05:34:28;;;;;;;2.67;1.67;;;;;;;15.48;30.65;101561.59;5032619;28;20025;-66
2023/04/20 05:36:55;;;;;;;5.20;1.95;;;;;;;15.51;30.49;101564.88;5032166;28;20067;-65
2023/04/20 05:39:21;;;;;;;5.82;1.80;;;;;;;15.49;31.39;101569.56;5032062;28;20048;-65
2023/04/20 05:41:46;;;;;;;8.75;1.92;;;;;;;15.50;31.30;101565.84;5032073;28;20041;-65
2023/04/20 05:44:12;;;;;;;4.93;1.98;;;;;;;15.52;30.70;101563.84;5033223;28;20053;-65
2023/04/20 05:46:37;;;;;;;2.63;1.70;;;;;;;15.53;30.90;101565.56;5016001;28;20033;-65
2023/04/20 05:49:03;;;;;;;2.92;1.77;;;;;;;15.52;32.25;101569.25;5032031;28;20044;-66
2023/04/20 05:51:32;;;;;;;2.30;1.50;;;;;;;15.54;30.89;101572.69;5033364;28;20156;-65
2023/04/20 05:53:57;;;;;;;2.45;1.73;;;;;;;15.54;32.26;101572.69;5031983;28;20017;-65
2023/04/20 05:56:23;;;;;;;5.75;2.00;;;;;;;15.55;32.00;101568.97;5031760;28;20029;-66
2023/04/20 05:58:48;;;;;;;3.67;2.17;;;;;;;15.56;32.63;101570.69;5032306;28;20029;-65
2023/04/20 06:01:14;;;;;;;3.13;1.98;;;;;;;15.53;31.83;101570.97;5032898;28;20094;-65
2023/04/20 06:03:39;;;;;;;6.03;2.15;;;;;;;15.52;31.99;101569.25;5031675;28;20034;-65
2023/04/20 06:06:05;;;;;;;6.10;2.55;;;;;;;15.49;32.52;101566.88;5031253;28;20413;-66
2023/04/20 06:08:31;;;;;;;3.10;1.63;;;;;;;15.51;31.65;101564.88;5015336;28;20048;-65
2023/04/20 06:10:57;;;;;;;4.30;1.83;;;;;;;15.52;32.74;101568.44;5014592;28;20029;-65
2023/04/20 06:13:23;;;;;;;3.75;1.90;;;;;;;15.52;32.99;101568.44;5015633;28;20503;-65
2023/04/20 06:15:48;;;;;;;3.00;1.85;;;;;;;15.50;32.65;101560.44;5015234;28;20030;-65
2023/04/20 06:18:14;;;;;;;4.40;2.00;;;;;;;15.53;32.07;101570.97;5015285;28;20032;-65
2023/04/20 06:20:39;;;;;;;3.20;1.80;;;;;;;15.51;32.38;101555.91;5015392;28;20084;-65
2023/04/20 06:23:05;;;;;;;3.28;2.30;;;;;;;15.52;33.18;101558.44;5014918;28;20129;-65
2023/04/20 06:25:30;;;;;;;3.22;2.15;;;;;;;15.50;32.51;101549.66;5032918;28;20022;-65
2023/04/20 06:27:55;;;;;;;4.47;2.40;;;;;;;15.51;33.19;101551.38;5031675;28;20400;-65
2023/04/20 06:30:21;;;;;;;4.13;1.85;;;;;;;15.52;32.96;101550.34;5014950;28;20041;-65
2023/04/20 06:32:46;;;;;;;7.20;2.08;;;;;;;15.52;32.29;101544.94;5031466;28;20517;-65
2023/04/20 06:35:12;;;;;;;3.53;2.08;;;;;;;15.53;33.62;101538.56;5031274;28;20036;-65
2023/04/20 06:37:39;;;;;;;6.15;2.33;;;;;;;15.56;32.40;101543.69;5032983;28;20021;-65
2023/04/20 06:40:08;;;;;;;4.18;2.03;;;;;;;15.56;32.60;101538.28;5031329;28;20459;-65
2023/04/20 06:42:34;;;;;;;2.97;2.17;;;;;;;15.56;32.95;101527.47;5031452;28;20034;-65
2023/04/20 06:44:59;;;;;;;3.53;2.35;;;;;;;15.63;32.43;101523.19;5031438;28;20044;-65
2023/04/20 06:47:30;;;;;;;4.50;2.45;;;;;;;15.66;33.79;101522.91;5031450;28;20038;-66
2023/04/20 06:49:57;;;;;;;3.90;2.42;;;;;;;15.70;32.42;101512.66;5032486;28;20025;-65
2023/04/20 06:52:22;;;;;;;6.15;2.40;;;;;;;15.76;32.61;101517.50;5031832;28;20021;-65
2023/04/20 06:54:48;;;;;;;3.25;2.00;;;;;;;15.79;33.68;101514.50;5031372;28;20052;-65
2023/04/20 06:57:13;;;;;;;3.72;2.15;;;;;;;15.85;33.19;101515.75;5014742;28;20034;-65
2023/04/20 06:59:39;;;;;;;8.77;2.33;;;;;;;15.88;32.86;101507.38;5032332;28;20041;-65
2023/04/20 07:02:04;;;;;;;4.15;2.40;;;;;;;15.94;33.14;101513.00;5014906;28;20393;-65
2023/04/20 07:04:29;;;;;;;7.47;2.15;;;;;;;16.01;33.04;101505.19;5031558;28;20034;-65
2023/04/20 07:06:55;;;;;;;3.22;2.25;;;;;;;16.02;33.08;101506.91;5032152;28;20045;-65
2023/04/20 07:09:21;;;;;;;4.90;1.75;;;;;;;16.07;32.43;101515.41;5032467;28;20527;-65
2023/04/20 07:11:47;;;;;;;5.63;2.20;;;;;;;16.10;32.34;101510.56;5031086;28;20033;-66
2023/04/20 07:14:12;;;;;;;2.95;2.00;;;;;;;16.09;32.92;101499.88;5014752;28;20036;-65
2023/04/20 07:16:38;;;;;;;3.08;1.77;;;;;;;16.16;34.19;101511.81;5031507;28;20055;-65
2023/04/20 07:19:03;;;;;;;4.28;1.95;;;;;;;16.15;33.29;101507.41;5031127;28;20116;-65
2023/04/20 07:21:30;;;;;;;8.52;2.10;;;;;;;16.06;32.37;101497.47;4998157;28;20087;-65
2023/04/20 07:23:57;;;;;;;3.00;2.10;;;;;;;16.10;33.77;101497.06;5000419;28;20040;-65
2023/04/20 07:26:23;;;;;;;6.18;2.50;;;;;;;16.15;33.39;101508.25;5035899;28;20033;-65
2023/04/20 07:28:48;;;;;;;9.05;2.15;;;;;;;16.18;32.68;101517.94;5036093;28;20033;-65
2023/04/20 07:31:14;;;;;;;7.28;2.00;;;;;;;16.17;32.96;101516.22;5034558;28;20026;-65
2023/04/20 07:33:39;;;;;;;2.95;2.17;;;;;;;16.18;32.86;101507.97;5018104;28;20163;-65
2023/04/20 07:36:05;;;;;;;5.78;3.20;;;;;;;16.18;33.66;101512.53;5034449;28;20034;-64
2023/04/20 07:38:31;;;;;;;4.93;2.20;;;;;;;16.20;33.84;101510.50;5034348;28;20034;-66
2023/04/20 07:40:56;;;;;;;13.82;2.60;;;;;;;16.21;34.19;101512.22;5034399;28;20090;-65
2023/04/20 07:43:22;;;;;;;3.92;2.50;;;;;;;16.24;32.73;101506.53;5034717;28;20528;-65
2023/04/20 07:45:47;;;;;;;3.45;2.13;;;;;;;16.27;33.70;101506.22;5017786;28;20563;-65
2023/04/20 07:48:13;;;;;;;2.72;2.33;;;;;;;16.30;34.16;101511.34;5034305;28;20452;-65
2023/04/20 07:50:38;;;;;;;4.45;2.38;;;;;;;16.28;34.06;101507.91;5034272;28;20033;-66
2023/04/20 07:53:04;;;;;;;6.47;2.50;;;;;;;16.33;33.34;101509.16;5035373;28;20034;-65
2023/04/20 07:55:29;;;;;;;6.22;2.92;;;;;;;16.37;32.97;101498.06;5018035;28;20021;-65
2023/04/20 07:57:55;;;;;;;5.45;2.40;;;;;;;16.41;33.75;101503.03;5034064;28;20055;-66
2023/04/20 08:00:21;;;;;;;4.15;2.72;;;;;;;16.47;34.01;101505.09;5035199;28;20535;-65
2023/04/20 08:02:47;;;;;;;4.65;2.55;;;;;;;16.51;33.19;101498.41;5001179;28;20033;-65
2023/04/20 08:05:12;;;;;;;5.63;2.78;;;;;;;16.58;32.83;101504.94;5033703;28;20030;-65
2023/04/20 08:07:38;;;;;;;4.63;2.58;;;;;;;16.60;33.18;101502.94;5035655;28;20046;-65
2023/04/20 08:10:05;;;;;;;5.72;3.10;;;;;;;16.61;34.18;101501.94;5033829;28;20120;-65
2023/04/20 08:12:30;;;;;;;8.88;3.15;;;;;;;16.57;34.66;101495.13;5033879;28;20045;-65
2023/04/20 08:14:59;;;;;;;5.90;3.53;;;;;;;16.57;34.30;101497.84;5034144;28;20022;-65
2023/04/20 08:17:25;;;;;;;15.10;4.90;;;;;;;16.55;34.75;101496.28;5034766;28;20079;-65
2023/04/20 08:19:51;;;;;;;8.02;4.05;;;;;;;16.54;33.40;101495.44;5034691;28;20087;-65
2023/04/20 08:22:16;;;;;;;7.88;4.25;;;;;;;16.58;32.96;101485.19;5017128;28;20033;-66
2023/04/20 08:24:41;;;;;;;6.65;4.10;;;;;;;16.57;33.08;101484.31;5033610;28;20117;-65
2023/04/20 08:27:10;;;;;;;6.82;3.85;;;;;;;16.61;34.53;101487.56;5033752;28;20029;-66
2023/04/20 08:29:35;;;;;;;8.23;3.92;;;;;;;16.59;34.77;101485.00;5033598;28;20034;-65
2023/04/20 08:32:02;;;;;;;9.25;3.47;;;;;;;16.63;34.42;101480.16;5033517;28;20412;-66
2023/04/20 08:34:27;;;;;;;11.18;3.95;;;;;;;16.70;33.22;101476.69;5017123;28;20029;-66
2023/04/20 08:36:53;;;;;;;8.02;4.38;;;;;;;16.81;34.10;101473.75;5034716;28;20073;-65
2023/04/20 08:39:20;;;;;;;7.45;4.13;;;;;;;16.98;33.12;101473.91;5016870;28;20033;-66
2023/04/20 08:41:46;;;;;;;8.43;4.28;;;;;;;17.19;34.25;101482.56;5033146;28;20039;-66
2023/04/20 08:44:12;;;;;;;6.60;4.68;;;;;;;17.82;33.64;101465.13;5033352;28;20112;-66
2023/04/20 08:46:39;;;;;;;9.77;4.97;;;;;;;18.08;33.59;101470.53;5033606;28;20437;-65
2023/04/20 08:49:05;;;;;;;10.95;5.53;;;;;;;18.07;32.59;101467.97;5001040;28;20048;-65
2023/04/20 08:51:31;;;;;;;8.27;4.65;;;;;;;18.48;33.17;101461.75;5017398;28;20425;-66
2023/04/20 08:54:02;;;;;;;10.25;5.43;;;;;;;18.54;32.68;101455.63;5034044;28;20030;-66
2023/04/20 08:56:35;;;;;;;9.32;5.00;;;;;;;18.45;33.44;101459.31;5033074;28;20034;-66
2023/04/20 08:59:02;;;;;;;7.40;4.18;;;;;;;18.35;33.09;101464.00;5032898;28;20021;-66
2023/04/20 09:01:28;;;;;;;9.32;4.78;;;;;;;18.28;32.68;101460.28;5034501;28;20025;-65
2023/04/20 09:03:53;;;;;;;7.55;4.32;;;;;;;18.26;32.97;101462.28;5032834;28;20124;-67
2023/04/20 09:06:19;;;;;;;10.13;4.47;;;;;;;18.23;33.15;101457.22;5032762;28;20467;-65
2023/04/20 09:08:45;;;;;;;6.53;4.20;;;;;;;18.22;33.39;101458.22;5032806;28;20049;-66
2023/04/20 09:11:21;;;;;;;7.10;3.65;;;;;;;18.16;33.06;101456.16;5032890;28;20044;-65
2023/04/20 09:14:16;;;;;;;8.98;4.63;;;;;;;18.06;33.07;101467.13;5016917;28;20385;-65
2023/04/20 09:16:52;;;;;;;7.40;4.78;;;;;;;17.91;33.36;101461.47;5029475;28;20494;-66
2023/04/20 09:19:25;;;;;;;4.82;4.32;;;;;;;17.84;33.22;101464.94;5016079;28;20041;-67
2023/04/20 09:21:53;;;;;;;11.68;4.82;;;;;;;17.81;33.22;101455.28;5032544;28;20502;-67
2023/04/20 09:24:19;;;;;;;8.50;4.95;;;;;;;17.79;33.77;101462.72;5032496;28;20033;-65
2023/04/20 09:26:46;;;;;;;8.90;5.95;;;;;;;17.83;33.56;101461.41;5016030;28;20113;-67
2023/04/20 09:29:19;;;;;;;9.68;6.20;;;;;;;17.81;33.82;101458.00;5032534;28;20075;-65
2023/04/20 09:31:45;;;;;;;11.75;5.20;;;;;;;17.75;34.02;101464.06;5032769;28;20029;-65
2023/04/20 09:34:11;;;;;;;10.30;6.60;;;;;;;17.70;34.18;101465.56;5032321;28;20511;-66
2023/04/20 09:36:38;;;;;;;9.85;5.88;;;;;;;17.68;34.34;101454.00;5033597;28;20400;-65
2023/04/20 09:39:08;;;;;;;9.48;5.47;;;;;;;17.70;33.08;101452.84;5032223;28;20033;-65
2023/04/20 09:41:34;;;;;;;7.40;5.25;;;;;;;17.71;34.57;101457.25;5033466;28;20026;-65
2023/04/20 09:44:01;;;;;;;8.20;5.30;;;;;;;17.71;34.12;101451.84;5032016;28;20032;-65
2023/04/20 09:46:30;;;;;;;7.57;4.68;;;;;;;17.66;34.25;101459.59;5100436;22;20053;-65
2023/04/20 09:48:58;;;;;;;15.55;5.15;;;;;;;17.66;33.46;101448.78;5032741;28;20119;-66
2023/04/20 09:51:26;;;;;;;8.40;4.95;;;;;;;17.64;34.26;101456.22;5035753;28;20059;-65
2023/04/20 09:53:56;;;;;;;9.05;5.18;;;;;;;17.62;34.15;101452.78;5035372;28;20025;-66
2023/04/20 09:56:21;;;;;;;7.57;4.88;;;;;;;17.61;33.19;101451.13;5035104;28;20484;-65
2023/04/20 09:58:48;;;;;;;8.40;5.32;;;;;;;17.62;33.47;101449.22;5035632;28;20029;-65
2023/04/20 10:01:13;;;;;;;7.55;3.75;;;;;;;17.61;34.62;101431.28;5062560;28;20040;-65
2023/04/20 10:03:42;;;;;;;8.15;4.28;;;;;;;17.63;33.73;101443.66;5071539;28;20036;-65
2023/04/20 10:06:25;;;;;;;5.22;3.78;;;;;;;17.64;33.38;101436.41;5055126;28;20044;-65
2023/04/20 10:08:51;;;;;;;5.65;3.08;;;;;;;17.72;33.39;101437.28;5071777;28;20040;-66
2023/04/20 10:11:40;;;;;;;4.93;2.75;;;;;;;17.85;34.03;101431.41;5054957;28;20066;-65
2023/04/20 10:14:19;;;;;;;5.00;3.58;;;;;;;17.92;33.93;101433.31;5071999;28;20034;-66
2023/04/20 10:16:46;;;;;;;4.28;2.92;;;;;;;17.93;34.20;101417.91;5055785;28;20029;-65
2023/04/20 10:19:11;;;;;;;4.22;2.60;;;;;;;17.93;33.40;101429.59;5071946;28;20512;-66
2023/04/20 10:21:47;;;;;;;2.97;2.13;;;;;;;17.99;33.73;101422.69;5055113;28;20043;-66
2023/04/20 10:24:13;;;;;;;6.47;2.50;;;;;;;18.08;34.44;101426.28;5071458;28;20056;-66
2023/04/20 10:26:59;;;;;;;3.65;2.83;;;;;;;18.13;32.96;101421.22;5071634;28;20033;-66
2023/04/20 10:29:26;;;;;;;10.73;2.63;;;;;;;18.09;34.48;101415.25;5072953;28;20040;-65
2023/04/20 10:31:52;;;;;;;5.72;2.85;;;;;;;18.07;33.26;101413.72;5071965;28;20383;-65
2023/04/20 10:34:38;;;;;;;5.80;3.15;;;;;;;18.06;34.34;101412.91;5071504;28;20040;-66
2023/04/20 10:37:11;;;;;;;4.80;3.13;;;;;;;18.04;33.22;101410.34;5054254;28;20515;-66
2023/04/20 10:39:47;;;;;;;9.27;3.50;;;;;;;17.98;33.92;101402.00;5071416;28;20120;-65
2023/04/20 10:42:12;;;;;;;8.20;4.07;;;;;;;17.92;33.87;101405.38;5054804;28;20052;-66
2023/04/20 10:44:48;;;;;;;4.95;3.13;;;;;;;17.90;33.20;101408.25;5071209;28;20097;-66
2023/04/20 10:47:14;;;;;;;4.57;3.20;;;;;;;17.84;33.80;101402.59;5072524;28;20056;-65
2023/04/20 10:49:40;;;;;;;5.50;3.10;;;;;;;17.81;34.66;101419.22;5072952;28;20060;-65
2023/04/20 10:52:06;;;;;;;5.07;2.97;;;;;;;17.75;33.51;101412.59;5054587;28;20601;-65
2023/04/20 10:54:38;;;;;;;3.22;2.33;;;;;;;17.66;34.37;101409.97;5054636;28;20484;-65
2023/04/20 10:57:04;;;;;;;2.83;2.25;;;;;;;17.53;34.70;101418.53;5055126;28;20029;-65
2023/04/20 10:59:30;;;;;;;5.43;3.17;;;;;;;17.35;35.40;101409.59;5074966;28;20024;-65
2023/04/20 11:01:55;;;;;;;8.75;3.78;;;;;;;17.19;34.66;101417.59;5076285;28;20115;-65
2023/04/20 11:04:31;;;;;;;5.47;3.17;;;;;;;16.97;34.42;101416.25;5075342;28;20033;-65
2023/04/20 11:07:04;;;;;;;4.15;3.22;;;;;;;16.76;36.17;101411.13;5075094;28;20064;-65
2023/04/20 11:09:30;;;;;;;4.50;3.25;;;;;;;16.61;36.52;101407.25;5058473;28;20496;-66
2023/04/20 11:12:03;;;;;;;5.50;3.78;;;;;;;16.55;35.13;101401.63;5076233;28;20028;-66
2023/04/20 11:14:30;;;;;;;6.15;3.95;;;;;;;16.63;36.79;101402.56;5074938;28;20484;-65
2023/04/20 11:16:56;;;;;;;6.07;3.95;;;;;;;16.72;36.22;101395.38;5074673;28;20040;-66
2023/04/20 11:19:30;;;;;;;5.05;3.30;;;;;;;16.89;36.46;101400.75;5058452;28;20021;-66
2023/04/20 11:21:55;;;;;;;7.28;4.03;;;;;;;17.05;36.25;101402.75;5058064;28;20115;-66